createdAt,value
2017-09-27T00:00:37.465Z,1017.51
2017-09-27T00:02:30.455Z,1017.48
2017-09-27T00:03:30.513Z,1017.53
2017-09-27T00:05:23.525Z,1017.48
2017-09-27T00:06:23.562Z,1017.53
2017-09-27T00:08:16.559Z,1017.50
2017-09-27T00:09:16.612Z,1017.47
2017-09-27T00:11:09.631Z,1017.51
2017-09-27T00:12:09.674Z,1017.47
2017-09-27T00:14:02.683Z,1017.42
2017-09-27T00:15:02.726Z,1017.41
2017-09-27T00:16:55.717Z,1017.45
2017-09-27T00:17:55.779Z,1017.41
2017-09-27T00:19:48.807Z,1017.44
2017-09-27T00:20:48.839Z,1017.44
2017-09-27T00:22:41.838Z,1017.45
2017-09-27T00:23:41.888Z,1017.44
2017-09-27T00:25:34.896Z,1017.41
2017-09-27T00:26:34.939Z,1017.40
2017-09-27T00:28:27.932Z,1017.42
2017-09-27T00:29:28.005Z,1017.44
2017-09-27T00:31:21.011Z,1017.37
2017-09-27T00:32:21.049Z,1017.38
2017-09-27T00:34:14.058Z,1017.35
2017-09-27T00:35:14.097Z,1017.35
2017-09-27T00:37:07.096Z,1017.37
2017-09-27T00:38:07.159Z,1017.38
2017-09-27T00:40:00.165Z,1017.32
2017-09-27T00:41:00.208Z,1017.33
2017-09-27T00:42:53.201Z,1017.33
2017-09-27T00:43:53.257Z,1017.35
2017-09-27T00:45:46.271Z,1017.30
2017-09-27T00:46:46.312Z,1017.29
2017-09-27T00:48:39.304Z,1017.28
2017-09-27T00:49:39.369Z,1017.26
2017-09-27T00:51:32.375Z,1017.28
2017-09-27T00:52:32.417Z,1017.27
2017-09-27T00:54:25.428Z,1017.24
2017-09-27T00:55:25.471Z,1017.23
2017-09-27T00:57:18.457Z,1017.25
2017-09-27T00:58:18.518Z,1017.23
2017-09-27T01:00:11.525Z,1017.23
2017-09-27T01:01:11.567Z,1017.25
2017-09-27T01:03:04.558Z,1017.20
2017-09-27T01:04:04.618Z,1017.20
2017-09-27T01:05:57.626Z,1017.17
2017-09-27T01:06:57.665Z,1017.16
2017-09-27T01:08:50.657Z,1017.16
2017-09-27T01:09:50.716Z,1017.10
2017-09-27T01:11:43.733Z,1017.09
2017-09-27T01:12:43.770Z,1017.07
2017-09-27T01:14:36.784Z,1017.06
2017-09-27T01:15:36.823Z,1017.07
2017-09-27T01:17:29.825Z,1017.06
2017-09-27T01:18:29.884Z,1017.03
2017-09-27T01:20:22.904Z,1017.06
2017-09-27T01:21:22.948Z,1017.02
2017-09-27T01:23:15.935Z,1017.03
2017-09-27T01:24:15.999Z,1017.02
2017-09-27T01:26:09.013Z,1016.99
2017-09-27T01:27:09.058Z,1017.00
2017-09-27T01:29:02.046Z,1017.04
2017-09-27T01:30:02.105Z,1017.05
2017-09-27T01:31:55.114Z,1017.08
2017-09-27T01:32:55.154Z,1017.12
2017-09-27T01:34:48.165Z,1017.10
2017-09-27T01:35:48.206Z,1017.11
2017-09-27T01:37:41.195Z,1017.07
2017-09-27T01:38:41.253Z,1017.07
2017-09-27T01:40:34.276Z,1017.08
2017-09-27T01:41:34.315Z,1017.06
2017-09-27T01:43:27.297Z,1017.04
2017-09-27T01:44:27.359Z,1017.01
2017-09-27T01:46:20.373Z,1017.02
2017-09-27T01:47:20.416Z,1017.05
2017-09-27T01:49:13.406Z,1016.98
2017-09-27T01:50:13.468Z,1017.00
2017-09-27T01:52:06.476Z,1017.00
2017-09-27T01:53:06.517Z,1016.99
2017-09-27T01:54:59.535Z,1017.01
2017-09-27T01:55:59.568Z,1017.02
2017-09-27T01:57:52.559Z,1017.03
2017-09-27T01:58:52.618Z,1016.97
2017-09-27T02:00:45.626Z,1017.02
2017-09-27T02:01:45.669Z,1017.02
2017-09-27T02:03:38.656Z,1017.00
2017-09-27T02:04:38.721Z,1016.97
2017-09-27T02:06:31.730Z,1016.97
2017-09-27T02:07:31.771Z,1016.95
2017-09-27T02:09:24.763Z,1016.99
2017-09-27T02:10:24.823Z,1016.96
2017-09-27T02:12:17.836Z,1016.98
2017-09-27T02:13:17.872Z,1016.97
2017-09-27T02:15:10.883Z,1017.00
2017-09-27T02:16:10.923Z,1017.01
2017-09-27T02:18:03.917Z,1017.01
2017-09-27T02:19:03.985Z,1017.00
2017-09-27T02:20:56.994Z,1016.98
2017-09-27T02:21:57.034Z,1016.98
2017-09-27T02:23:50.025Z,1017.00
2017-09-27T02:24:50.088Z,1016.95
2017-09-27T02:26:43.094Z,1016.98
2017-09-27T02:27:43.134Z,1017.01
2017-09-27T02:29:36.128Z,1017.00
2017-09-27T02:30:36.184Z,1017.02
2017-09-27T02:32:29.200Z,1017.02
2017-09-27T02:33:29.234Z,1017.06
2017-09-27T02:35:22.241Z,1017.04
2017-09-27T02:36:22.288Z,1017.06
2017-09-27T02:38:15.272Z,1017.04
2017-09-27T02:39:15.329Z,1017.05
2017-09-27T02:41:08.338Z,1017.01
2017-09-27T02:42:08.380Z,1017.02
2017-09-27T02:44:01.368Z,1016.99
2017-09-27T02:45:01.434Z,1017.01
2017-09-27T02:46:54.439Z,1017.02
2017-09-27T02:47:54.478Z,1017.02
2017-09-27T02:49:47.468Z,1017.03
2017-09-27T02:50:47.534Z,1017.04
2017-09-27T02:52:40.554Z,1017.05
2017-09-27T02:53:40.591Z,1017.03
2017-09-27T02:55:33.600Z,1017.09
2017-09-27T02:56:33.640Z,1017.11
2017-09-27T02:58:26.631Z,1017.14
2017-09-27T02:59:26.689Z,1017.13
2017-09-27T03:01:19.697Z,1017.14
2017-09-27T03:02:19.737Z,1017.14
2017-09-27T03:04:12.731Z,1017.17
2017-09-27T03:05:12.793Z,1017.21
2017-09-27T03:07:05.835Z,1017.21
2017-09-27T03:08:05.852Z,1017.20
2017-09-27T03:09:58.853Z,1017.21
2017-09-27T03:10:58.909Z,1017.23
2017-09-27T03:12:51.936Z,1017.22
2017-09-27T03:13:51.967Z,1017.19
2017-09-27T03:15:44.979Z,1017.19
2017-09-27T03:16:45.019Z,1017.18
2017-09-27T03:18:38.012Z,1017.20
2017-09-27T03:19:38.074Z,1017.22
2017-09-27T03:21:31.086Z,1017.19
2017-09-27T03:22:31.127Z,1017.18
2017-09-27T03:24:24.114Z,1017.18
2017-09-27T03:25:24.175Z,1017.17
2017-09-27T03:27:17.189Z,1017.15
2017-09-27T03:28:17.229Z,1017.12
2017-09-27T03:30:10.219Z,1017.16
2017-09-27T03:31:10.281Z,1017.13
2017-09-27T03:33:03.282Z,1017.12
2017-09-27T03:34:03.323Z,1017.14
2017-09-27T03:35:57.840Z,1017.13
2017-09-27T03:36:57.881Z,1017.11
2017-09-27T03:38:50.872Z,1017.10
2017-09-27T03:39:50.930Z,1017.14
2017-09-27T03:41:44.446Z,1017.12
2017-09-27T03:42:44.486Z,1017.10
2017-09-27T03:44:37.479Z,1017.10
2017-09-27T03:45:37.593Z,1017.11
2017-09-27T03:47:30.553Z,1017.07
2017-09-27T03:48:30.592Z,1017.08
2017-09-27T03:50:24.092Z,1017.13
2017-09-27T03:51:24.148Z,1017.07
2017-09-27T03:53:17.157Z,1017.09
2017-09-27T03:54:17.198Z,1017.11
2017-09-27T03:56:10.215Z,1017.13
2017-09-27T03:57:10.247Z,1017.10
2017-09-27T03:59:03.241Z,1017.10
2017-09-27T04:00:03.303Z,1017.13
2017-09-27T04:01:56.314Z,1017.10
2017-09-27T04:02:56.355Z,1017.14
2017-09-27T04:04:49.338Z,1017.12
2017-09-27T04:05:49.400Z,1017.11
2017-09-27T04:07:42.410Z,1017.14
2017-09-27T04:08:42.464Z,1017.09
2017-09-27T04:10:35.444Z,1017.08
2017-09-27T04:11:35.506Z,1017.10
2017-09-27T04:13:28.514Z,1017.10
2017-09-27T04:14:28.553Z,1017.11
2017-09-27T04:16:21.564Z,1017.10
2017-09-27T04:17:21.609Z,1017.09
2017-09-27T04:19:14.619Z,1017.14
2017-09-27T04:20:14.654Z,1017.12
2017-09-27T04:22:07.660Z,1017.12
2017-09-27T04:23:07.700Z,1017.13
2017-09-27T04:25:00.691Z,1017.09
2017-09-27T04:26:00.748Z,1017.09
2017-09-27T04:27:53.760Z,1017.10
2017-09-27T04:28:53.800Z,1017.07
2017-09-27T04:30:46.800Z,1017.06
2017-09-27T04:31:46.849Z,1017.09
2017-09-27T04:33:39.870Z,1017.07
2017-09-27T04:34:39.903Z,1017.08
2017-09-27T04:36:32.912Z,1017.05
2017-09-27T04:37:32.955Z,1017.06
2017-09-27T04:39:25.946Z,1017.10
2017-09-27T04:40:26.009Z,1017.09
2017-09-27T04:42:19.035Z,1017.12
2017-09-27T04:43:19.061Z,1017.09
2017-09-27T04:45:12.050Z,1017.14
2017-09-27T04:46:12.114Z,1017.19
2017-09-27T04:48:05.147Z,1017.15
2017-09-27T04:49:05.168Z,1017.18
2017-09-27T04:50:58.164Z,1017.19
2017-09-27T04:51:58.233Z,1017.18
2017-09-27T04:53:51.260Z,1017.16
2017-09-27T04:54:51.280Z,1017.19
2017-09-27T04:56:44.326Z,1017.16
2017-09-27T04:57:44.331Z,1017.11
2017-09-27T04:59:37.336Z,1017.12
2017-09-27T05:00:37.382Z,1017.09
2017-09-27T05:02:30.438Z,1017.13
2017-09-27T05:03:30.448Z,1017.11
2017-09-27T05:05:23.429Z,1017.07
2017-09-27T05:06:23.505Z,1017.13
2017-09-27T05:08:16.493Z,1017.18
2017-09-27T05:09:16.556Z,1017.18
2017-09-27T05:11:09.529Z,1017.21
2017-09-27T05:12:09.629Z,1017.20
2017-09-27T05:14:02.593Z,1017.22
2017-09-27T05:15:02.635Z,1017.20
2017-09-27T05:16:55.641Z,1017.22
2017-09-27T05:17:55.711Z,1017.18
2017-09-27T05:19:48.675Z,1017.23
2017-09-27T05:20:48.740Z,1017.24
2017-09-27T05:22:41.752Z,1017.28
2017-09-27T05:23:41.819Z,1017.24
2017-09-27T05:25:34.804Z,1017.27
2017-09-27T05:26:34.842Z,1017.31
2017-09-27T05:28:27.853Z,1017.31
2017-09-27T05:29:27.887Z,1017.34
2017-09-27T05:31:20.875Z,1017.33
2017-09-27T05:32:20.949Z,1017.28
2017-09-27T05:34:13.953Z,1017.36
2017-09-27T05:35:14.006Z,1017.35
2017-09-27T05:37:07.018Z,1017.38
2017-09-27T05:38:07.047Z,1017.42
2017-09-27T05:40:00.033Z,1017.39
2017-09-27T05:41:00.094Z,1017.44
2017-09-27T05:42:53.120Z,1017.49
2017-09-27T05:43:53.149Z,1017.46
2017-09-27T05:45:46.131Z,1017.49
2017-09-27T05:46:46.198Z,1017.48
2017-09-27T05:48:39.216Z,1017.49
2017-09-27T05:49:39.259Z,1017.50
2017-09-27T05:51:32.227Z,1017.50
2017-09-27T05:52:32.289Z,1017.51
2017-09-27T05:54:25.295Z,1017.47
2017-09-27T05:55:25.336Z,1017.50
2017-09-27T05:57:18.349Z,1017.46
2017-09-27T05:58:18.386Z,1017.46
2017-09-27T06:00:11.391Z,1017.50
2017-09-27T06:01:11.434Z,1017.49
2017-09-27T06:03:04.449Z,1017.54
2017-09-27T06:04:04.488Z,1017.56
2017-09-27T06:05:57.474Z,1017.52
2017-09-27T06:06:57.534Z,1017.54
2017-09-27T06:08:50.546Z,1017.54
2017-09-27T06:09:50.590Z,1017.56
2017-09-27T06:11:43.573Z,1017.56
2017-09-27T06:12:43.637Z,1017.56
2017-09-27T06:14:36.652Z,1017.56
2017-09-27T06:15:36.684Z,1017.56
2017-09-27T06:17:29.715Z,1017.57
2017-09-27T06:18:29.737Z,1017.55
2017-09-27T06:20:22.725Z,1017.57
2017-09-27T06:21:22.797Z,1017.57
2017-09-27T06:23:15.800Z,1017.57
2017-09-27T06:24:15.846Z,1017.54
2017-09-27T06:26:08.830Z,1017.56
2017-09-27T06:27:08.902Z,1017.55
2017-09-27T06:29:01.919Z,1017.58
2017-09-27T06:30:01.938Z,1017.58
2017-09-27T06:31:54.925Z,1017.61
2017-09-27T06:32:54.987Z,1017.58
2017-09-27T06:34:47.997Z,1017.59
2017-09-27T06:35:48.040Z,1017.61
2017-09-27T06:37:41.084Z,1017.58
2017-09-27T06:38:41.087Z,1017.63
2017-09-27T06:40:34.079Z,1017.66
2017-09-27T06:41:34.138Z,1017.68
2017-09-27T06:43:27.150Z,1017.70
2017-09-27T06:44:27.194Z,1017.67
2017-09-27T06:46:20.205Z,1017.72
2017-09-27T06:47:20.256Z,1017.70
2017-09-27T06:49:13.318Z,1017.66
2017-09-27T06:50:13.317Z,1017.67
2017-09-27T06:52:06.308Z,1017.66
2017-09-27T06:53:06.363Z,1017.66
2017-09-27T06:54:59.385Z,1017.68
2017-09-27T06:55:59.430Z,1017.68
2017-09-27T06:57:52.466Z,1017.70
2017-09-27T06:58:52.474Z,1017.70
2017-09-27T07:00:45.493Z,1017.70
2017-09-27T07:01:45.549Z,1017.72
2017-09-27T07:03:38.550Z,1017.78
2017-09-27T07:04:38.594Z,1017.78
2017-09-27T07:06:31.608Z,1017.79
2017-09-27T07:07:31.644Z,1017.78
2017-09-27T07:09:24.659Z,1017.79
2017-09-27T07:10:24.704Z,1017.78
2017-09-27T07:12:17.692Z,1017.81
2017-09-27T07:13:17.751Z,1017.81
2017-09-27T07:15:10.800Z,1017.84
2017-09-27T07:16:10.806Z,1017.83
2017-09-27T07:18:03.833Z,1017.85
2017-09-27T07:19:03.860Z,1017.85
2017-09-27T07:20:56.852Z,1017.83
2017-09-27T07:21:56.920Z,1017.80
2017-09-27T07:23:49.944Z,1017.79
2017-09-27T07:24:49.975Z,1017.76
2017-09-27T07:26:42.961Z,1017.78
2017-09-27T07:27:43.032Z,1017.80
2017-09-27T07:29:36.058Z,1017.81
2017-09-27T07:30:36.085Z,1017.80
2017-09-27T07:32:29.075Z,1017.85
2017-09-27T07:33:29.145Z,1017.87
2017-09-27T07:35:22.154Z,1017.87
2017-09-27T07:36:22.194Z,1017.90
2017-09-27T07:38:15.211Z,1017.93
2017-09-27T07:39:15.252Z,1017.95
2017-09-27T07:41:08.249Z,1017.96
2017-09-27T07:42:08.310Z,1017.94
2017-09-27T07:44:01.347Z,1017.98
2017-09-27T07:45:01.393Z,1017.99
2017-09-27T07:46:54.893Z,1017.97
2017-09-27T07:47:54.952Z,1018.00
2017-09-27T07:49:47.969Z,1018.10
2017-09-27T07:50:48.008Z,1018.06
2017-09-27T07:52:41.047Z,1018.07
2017-09-27T07:53:41.082Z,1018.07
2017-09-27T07:55:34.084Z,1018.06
2017-09-27T07:56:34.121Z,1018.04
2017-09-27T07:58:27.151Z,1018.07
2017-09-27T07:59:27.179Z,1018.08
2017-09-27T08:01:20.182Z,1018.05
2017-09-27T08:02:20.243Z,1018.09
2017-09-27T08:04:13.258Z,1018.06
2017-09-27T08:05:13.301Z,1018.04
2017-09-27T08:07:06.295Z,1018.03
2017-09-27T08:08:06.359Z,1018.10
2017-09-27T08:09:59.375Z,1018.12
2017-09-27T08:10:59.419Z,1018.15
2017-09-27T08:12:52.419Z,1018.15
2017-09-27T08:13:52.488Z,1018.19
2017-09-27T08:15:45.499Z,1018.17
2017-09-27T08:16:45.547Z,1018.18
2017-09-27T08:18:38.559Z,1018.21
2017-09-27T08:19:38.598Z,1018.18
2017-09-27T08:21:31.605Z,1018.21
2017-09-27T08:22:31.659Z,1018.17
2017-09-27T08:24:24.704Z,1018.21
2017-09-27T08:25:24.715Z,1018.18
2017-09-27T08:27:17.706Z,1018.19
2017-09-27T08:28:17.769Z,1018.25
2017-09-27T08:30:10.813Z,1018.27
2017-09-27T08:31:10.832Z,1018.22
2017-09-27T08:33:03.837Z,1018.26
2017-09-27T08:34:03.887Z,1018.28
2017-09-27T08:35:56.910Z,1018.32
2017-09-27T08:36:56.952Z,1018.42
2017-09-27T08:38:50.017Z,1018.36
2017-09-27T08:39:50.011Z,1018.37
2017-09-27T08:41:43.013Z,1018.41
2017-09-27T08:42:43.071Z,1018.42
2017-09-27T08:44:36.666Z,1018.47
2017-09-27T08:45:36.654Z,1018.43
2017-09-27T08:47:29.668Z,1018.42
2017-09-27T08:48:29.722Z,1018.34
2017-09-27T08:50:22.729Z,1018.35
2017-09-27T08:51:22.773Z,1018.36
2017-09-27T08:53:15.783Z,1018.27
2017-09-27T08:54:15.872Z,1018.28
2017-09-27T08:56:08.894Z,1018.33
2017-09-27T08:57:08.952Z,1018.28
2017-09-27T08:59:01.999Z,1018.34
2017-09-27T09:00:02.057Z,1018.36
2017-09-27T09:01:55.006Z,1018.32
2017-09-27T09:02:55.043Z,1018.30
2017-09-27T09:04:48.133Z,1018.27
2017-09-27T09:05:48.137Z,1018.28
2017-09-27T09:07:41.096Z,1018.27
2017-09-27T09:08:41.158Z,1018.29
2017-09-27T09:10:34.177Z,1018.21
2017-09-27T09:11:34.217Z,1018.19
2017-09-27T09:13:27.259Z,1018.18
2017-09-27T09:14:27.284Z,1018.19
2017-09-27T09:16:20.342Z,1018.20
2017-09-27T09:17:20.351Z,1018.14
2017-09-27T09:19:13.371Z,1018.15
2017-09-27T09:20:13.409Z,1018.13
2017-09-27T09:22:06.417Z,1018.14
2017-09-27T09:23:06.478Z,1018.18
2017-09-27T09:24:59.502Z,1018.20
2017-09-27T09:25:59.543Z,1018.19
2017-09-27T09:27:52.544Z,1018.19
2017-09-27T09:28:52.605Z,1018.19
2017-09-27T09:30:45.621Z,1018.18
2017-09-27T09:31:45.666Z,1018.18
2017-09-27T09:33:38.679Z,1018.19
2017-09-27T09:34:38.734Z,1018.18
2017-09-27T09:36:31.749Z,1018.12
2017-09-27T09:37:31.795Z,1018.14
2017-09-27T09:39:24.810Z,1018.16
2017-09-27T09:40:24.859Z,1018.16
2017-09-27T09:42:17.847Z,1018.11
2017-09-27T09:43:17.913Z,1018.11
2017-09-27T09:45:10.927Z,1018.06
2017-09-27T09:46:10.977Z,1018.07
2017-09-27T09:48:03.965Z,1018.07
2017-09-27T09:49:04.031Z,1018.04
2017-09-27T09:50:57.047Z,1018.05
2017-09-27T09:51:57.093Z,1018.05
2017-09-27T09:53:50.088Z,1018.04
2017-09-27T09:54:50.194Z,1018.08
2017-09-27T09:56:43.177Z,1018.10
2017-09-27T09:57:43.219Z,1018.07
2017-09-27T09:59:36.244Z,1018.04
2017-09-27T10:00:36.290Z,1018.00
2017-09-27T10:02:29.286Z,1018.01
2017-09-27T10:03:29.352Z,1018.01
2017-09-27T10:05:22.373Z,1017.99
2017-09-27T10:06:22.418Z,1017.98
2017-09-27T10:08:15.427Z,1017.94
2017-09-27T10:09:15.480Z,1017.94
2017-09-27T10:11:08.502Z,1017.93
2017-09-27T10:12:08.547Z,1017.93
2017-09-27T10:14:01.541Z,1017.92
2017-09-27T10:15:01.607Z,1017.91
2017-09-27T10:16:54.629Z,1017.86
2017-09-27T10:17:54.673Z,1017.89
2017-09-27T10:19:47.689Z,1017.91
2017-09-27T10:20:47.731Z,1017.85
2017-09-27T10:22:40.729Z,1017.87
2017-09-27T10:23:40.797Z,1017.92
2017-09-27T10:25:33.805Z,1017.90
2017-09-27T10:26:33.846Z,1017.84
2017-09-27T10:28:26.840Z,1017.88
2017-09-27T10:29:26.904Z,1017.90
2017-09-27T10:31:19.922Z,1017.86
2017-09-27T10:32:19.965Z,1017.85
2017-09-27T10:34:12.960Z,1017.83
2017-09-27T10:35:13.026Z,1017.86
2017-09-27T10:37:06.043Z,1017.83
2017-09-27T10:38:06.087Z,1017.78
2017-09-27T10:39:59.100Z,1017.81
2017-09-27T10:40:59.146Z,1017.79
2017-09-27T10:42:52.148Z,1017.78
2017-09-27T10:43:52.211Z,1017.77
2017-09-27T10:45:45.229Z,1017.78
2017-09-27T10:46:45.270Z,1017.76
2017-09-27T10:48:38.273Z,1017.72
2017-09-27T10:49:38.343Z,1017.72
2017-09-27T10:51:31.356Z,1017.66
2017-09-27T10:52:31.401Z,1017.66
2017-09-27T10:54:24.399Z,1017.66
2017-09-27T10:55:24.470Z,1017.63
2017-09-27T10:57:17.496Z,1017.61
2017-09-27T10:58:17.535Z,1017.62
2017-09-27T11:00:10.549Z,1017.62
2017-09-27T11:01:10.595Z,1017.64
2017-09-27T11:03:03.587Z,1017.63
2017-09-27T11:04:03.662Z,1017.65
2017-09-27T11:05:56.673Z,1017.58
2017-09-27T11:06:56.716Z,1017.60
2017-09-27T11:08:49.711Z,1017.60
2017-09-27T11:09:49.775Z,1017.63
2017-09-27T11:11:46.195Z,1017.63
2017-09-27T11:12:46.218Z,1017.64
2017-09-27T11:14:36.197Z,1017.60
2017-09-27T11:15:36.200Z,1017.60
2017-09-27T11:17:29.120Z,1017.63
2017-09-27T11:18:29.307Z,1017.58
2017-09-27T11:20:22.159Z,1017.58
2017-09-27T11:21:22.211Z,1017.60
2017-09-27T11:23:15.200Z,1017.58
2017-09-27T11:24:15.270Z,1017.56
2017-09-27T11:26:08.296Z,1017.56
2017-09-27T11:27:08.325Z,1017.57
2017-09-27T11:29:01.322Z,1017.54
2017-09-27T11:30:01.399Z,1017.53
2017-09-27T11:31:54.402Z,1017.50
2017-09-27T11:32:54.452Z,1017.52
2017-09-27T11:34:47.448Z,1017.49
2017-09-27T11:35:47.515Z,1017.49
2017-09-27T11:37:40.536Z,1017.45
2017-09-27T11:38:40.578Z,1017.43
2017-09-27T11:40:33.597Z,1017.49
2017-09-27T11:41:33.644Z,1017.40
2017-09-27T11:43:26.636Z,1017.39
2017-09-27T11:44:26.704Z,1017.37
2017-09-27T11:46:19.741Z,1017.35
2017-09-27T11:47:19.802Z,1017.36
2017-09-27T11:49:12.787Z,1017.34
2017-09-27T11:50:12.849Z,1017.36
2017-09-27T11:52:05.868Z,1017.36
2017-09-27T11:53:05.908Z,1017.35
2017-09-27T11:54:58.906Z,1017.34
2017-09-27T11:55:58.972Z,1017.32
2017-09-27T11:57:51.991Z,1017.30
2017-09-27T11:58:52.037Z,1017.32
2017-09-27T12:00:45.053Z,1017.27
2017-09-27T12:01:45.100Z,1017.28
2017-09-27T12:03:38.093Z,1017.29
2017-09-27T12:04:38.160Z,1017.30
2017-09-27T12:06:31.174Z,1017.27
2017-09-27T12:07:31.223Z,1017.24
2017-09-27T12:09:24.235Z,1017.20
2017-09-27T12:10:24.298Z,1017.24
2017-09-27T12:12:17.311Z,1017.20
2017-09-27T12:13:17.359Z,1017.19
2017-09-27T12:15:10.352Z,1017.14
2017-09-27T12:16:10.417Z,1017.16
2017-09-27T12:18:03.461Z,1017.13
2017-09-27T12:19:03.488Z,1017.13
2017-09-27T12:20:56.506Z,1017.11
2017-09-27T12:21:56.549Z,1017.08
2017-09-27T12:23:50.058Z,1017.05
2017-09-27T12:24:50.127Z,1017.07
2017-09-27T12:26:43.141Z,1017.11
2017-09-27T12:27:43.181Z,1017.08
2017-09-27T12:29:36.188Z,1017.07
2017-09-27T12:30:36.253Z,1017.08
2017-09-27T12:32:29.291Z,1017.01
2017-09-27T12:33:29.343Z,1017.02
2017-09-27T12:35:22.334Z,1017.00
2017-09-27T12:36:22.399Z,1017.03
2017-09-27T12:38:15.416Z,1017.00
2017-09-27T12:39:15.460Z,1017.01
2017-09-27T12:41:08.480Z,1017.05
2017-09-27T12:42:08.527Z,1017.06
2017-09-27T12:44:01.525Z,1017.05
2017-09-27T12:45:01.600Z,1017.06
2017-09-27T12:46:54.611Z,1017.05
2017-09-27T12:47:54.655Z,1017.04
2017-09-27T12:49:47.715Z,1017.03
2017-09-27T12:50:47.782Z,1017.02
2017-09-27T12:52:40.801Z,1017.01
2017-09-27T12:53:40.845Z,1016.99
2017-09-27T12:55:33.842Z,1017.00
2017-09-27T12:56:33.908Z,1016.97
2017-09-27T12:58:26.927Z,1016.96
2017-09-27T12:59:26.971Z,1016.95
2017-09-27T13:01:19.989Z,1016.95
2017-09-27T13:02:20.034Z,1016.92
2017-09-27T13:04:13.034Z,1016.90
2017-09-27T13:05:13.122Z,1016.96
2017-09-27T13:07:06.127Z,1016.93
2017-09-27T13:08:06.176Z,1016.93
2017-09-27T13:09:59.170Z,1016.92
2017-09-27T13:10:59.234Z,1016.86
2017-09-27T13:12:52.276Z,1016.86
2017-09-27T13:13:52.297Z,1016.85
2017-09-27T13:15:45.309Z,1016.84
2017-09-27T13:16:45.359Z,1016.86
2017-09-27T13:18:38.378Z,1016.83
2017-09-27T13:19:38.427Z,1016.88
2017-09-27T13:21:31.451Z,1016.86
2017-09-27T13:22:31.487Z,1016.86
2017-09-27T13:24:25.980Z,1016.86
2017-09-27T13:25:26.046Z,1016.86
2017-09-27T13:27:19.069Z,1016.79
2017-09-27T13:28:19.107Z,1016.84
2017-09-27T13:30:12.101Z,1016.83
2017-09-27T13:31:12.168Z,1016.80
2017-09-27T13:33:05.187Z,1016.87
2017-09-27T13:34:05.233Z,1016.86
2017-09-27T13:35:58.229Z,1016.87
2017-09-27T13:36:58.296Z,1016.85
2017-09-27T13:38:51.368Z,1016.87
2017-09-27T13:39:51.387Z,1016.85
2017-09-27T13:41:44.380Z,1016.86
2017-09-27T13:42:44.429Z,1016.83
2017-09-27T13:44:37.426Z,1016.84
2017-09-27T13:45:37.492Z,1016.84
2017-09-27T13:47:30.513Z,1016.84
2017-09-27T13:48:30.556Z,1016.81
2017-09-27T13:50:23.590Z,1016.79
2017-09-27T13:51:23.639Z,1016.81
2017-09-27T13:53:16.644Z,1016.79
2017-09-27T13:54:16.689Z,1016.76
2017-09-27T13:56:09.686Z,1016.74
2017-09-27T13:57:09.752Z,1016.76
2017-09-27T13:59:02.785Z,1016.78
2017-09-27T14:00:02.830Z,1016.78
2017-09-27T14:01:55.836Z,1016.77
2017-09-27T14:02:55.881Z,1016.74
2017-09-27T14:04:48.882Z,1016.74
2017-09-27T14:05:48.963Z,1016.72
2017-09-27T14:07:41.981Z,1016.70
2017-09-27T14:08:42.028Z,1016.68
2017-09-27T14:10:35.032Z,1016.68
2017-09-27T14:11:35.094Z,1016.67
2017-09-27T14:13:28.114Z,1016.69
2017-09-27T14:14:28.162Z,1016.69
2017-09-27T14:16:21.155Z,1016.67
2017-09-27T14:17:21.234Z,1016.66
2017-09-27T14:19:14.275Z,1016.62
2017-09-27T14:20:14.303Z,1016.62
2017-09-27T14:22:07.311Z,1016.63
2017-09-27T14:23:07.355Z,1016.64
2017-09-27T14:25:00.399Z,1016.57
2017-09-27T14:26:00.421Z,1016.57
2017-09-27T14:27:53.461Z,1016.53
2017-09-27T14:28:53.484Z,1016.53
2017-09-27T14:30:46.481Z,1016.56
2017-09-27T14:31:46.549Z,1016.53
2017-09-27T14:33:39.565Z,1016.58
2017-09-27T14:34:39.610Z,1016.56
2017-09-27T14:36:32.608Z,1016.56
2017-09-27T14:37:32.675Z,1016.53
2017-09-27T14:39:25.692Z,1016.55
2017-09-27T14:40:25.735Z,1016.61
2017-09-27T14:42:18.776Z,1016.55
2017-09-27T14:43:18.796Z,1016.50
2017-09-27T14:45:11.793Z,1016.52
2017-09-27T14:46:11.859Z,1016.53
2017-09-27T14:48:04.878Z,1016.48
2017-09-27T14:49:04.922Z,1016.53
2017-09-27T14:50:57.920Z,1016.48
2017-09-27T14:51:57.987Z,1016.51
2017-09-27T14:53:51.003Z,1016.50
2017-09-27T14:54:51.048Z,1016.51
2017-09-27T14:56:44.042Z,1016.48
2017-09-27T14:57:44.107Z,1016.48
2017-09-27T14:59:37.124Z,1016.48
2017-09-27T15:00:37.172Z,1016.46
2017-09-27T15:02:30.189Z,1016.53
2017-09-27T15:03:30.230Z,1016.51
2017-09-27T15:05:23.238Z,1016.53
2017-09-27T15:06:23.290Z,1016.56
2017-09-27T15:08:16.305Z,1016.53
2017-09-27T15:09:16.384Z,1016.55
2017-09-27T15:11:09.352Z,1016.50
2017-09-27T15:12:09.412Z,1016.50
2017-09-27T15:14:02.434Z,1016.46
2017-09-27T15:15:02.473Z,1016.45
2017-09-27T15:16:55.467Z,1016.45
2017-09-27T15:17:55.533Z,1016.45
2017-09-27T15:19:48.548Z,1016.46
2017-09-27T15:20:48.594Z,1016.43
2017-09-27T15:22:41.645Z,1016.41
2017-09-27T15:23:41.681Z,1016.42
2017-09-27T15:25:34.670Z,1016.43
2017-09-27T15:26:34.736Z,1016.44
2017-09-27T15:28:27.757Z,1016.40
2017-09-27T15:29:27.801Z,1016.39
2017-09-27T15:31:20.795Z,1016.40
2017-09-27T15:32:20.859Z,1016.42
2017-09-27T15:34:13.884Z,1016.40
2017-09-27T15:35:13.930Z,1016.43
2017-09-27T15:37:06.946Z,1016.41
2017-09-27T15:38:06.995Z,1016.47
2017-09-27T15:40:00.019Z,1016.47
2017-09-27T15:41:00.123Z,1016.44
2017-09-27T15:42:53.077Z,1016.52
2017-09-27T15:43:53.146Z,1016.55
2017-09-27T15:45:46.117Z,1016.54
2017-09-27T15:46:46.184Z,1016.56
2017-09-27T15:48:39.202Z,1016.53
2017-09-27T15:49:39.247Z,1016.54
2017-09-27T15:51:32.246Z,1016.56
2017-09-27T15:52:32.306Z,1016.57
2017-09-27T15:54:25.339Z,1016.56
2017-09-27T15:55:25.379Z,1016.59
2017-09-27T15:57:18.369Z,1016.62
2017-09-27T15:58:18.460Z,1016.59
2017-09-27T16:00:11.457Z,1016.64
2017-09-27T16:01:11.502Z,1016.66
2017-09-27T16:03:04.523Z,1016.62
2017-09-27T16:04:04.692Z,1016.70
2017-09-27T16:05:57.566Z,1016.71
2017-09-27T16:06:57.633Z,1016.70
2017-09-27T16:08:50.654Z,1016.68
2017-09-27T16:09:50.704Z,1016.67
2017-09-27T16:11:43.691Z,1016.67
2017-09-27T16:12:43.761Z,1016.67
2017-09-27T16:14:36.788Z,1016.66
2017-09-27T16:15:36.887Z,1016.69
2017-09-27T16:17:29.827Z,1016.74
2017-09-27T16:18:29.894Z,1016.74
2017-09-27T16:20:22.914Z,1016.77
2017-09-27T16:21:22.952Z,1016.74
2017-09-27T16:23:15.976Z,1016.76
2017-09-27T16:24:16.028Z,1016.78
2017-09-27T16:26:09.013Z,1016.79
2017-09-27T16:27:09.077Z,1016.79
2017-09-27T16:29:02.098Z,1016.82
2017-09-27T16:30:02.137Z,1016.80
2017-09-27T16:31:55.143Z,1016.87
2017-09-27T16:32:55.231Z,1016.89
2017-09-27T16:34:48.227Z,1016.88
2017-09-27T16:35:48.269Z,1016.87
2017-09-27T16:37:41.261Z,1016.85
2017-09-27T16:38:41.332Z,1016.84
2017-09-27T16:40:34.342Z,1016.86
2017-09-27T16:41:34.388Z,1016.83
2017-09-27T16:43:27.399Z,1016.84
2017-09-27T16:44:27.448Z,1016.81
2017-09-27T16:46:20.438Z,1016.80
2017-09-27T16:47:20.501Z,1016.79
2017-09-27T16:49:13.518Z,1016.79
2017-09-27T16:50:13.565Z,1016.80
2017-09-27T16:52:07.064Z,1016.77
2017-09-27T16:53:07.130Z,1016.81
2017-09-27T16:55:00.144Z,1016.79
2017-09-27T16:56:00.188Z,1016.81
2017-09-27T16:57:53.178Z,1016.81
2017-09-27T16:58:53.257Z,1016.82
2017-09-27T17:00:46.254Z,1016.82
2017-09-27T17:01:46.299Z,1016.86
2017-09-27T17:03:39.335Z,1016.86
2017-09-27T17:04:39.380Z,1016.87
2017-09-27T17:06:32.425Z,1016.83
2017-09-27T17:07:32.446Z,1016.84
2017-09-27T17:09:25.456Z,1016.82
2017-09-27T17:10:25.710Z,1016.82
2017-09-27T17:12:18.499Z,1016.85
2017-09-27T17:13:18.558Z,1016.88
2017-09-27T17:15:11.579Z,1016.85
2017-09-27T17:16:11.622Z,1016.83
2017-09-27T17:18:04.631Z,1016.86
2017-09-27T17:19:04.686Z,1016.86
2017-09-27T17:20:57.709Z,1016.88
2017-09-27T17:21:57.753Z,1016.89
2017-09-27T17:23:50.836Z,1016.88
2017-09-27T17:24:50.802Z,1016.89
2017-09-27T17:26:43.816Z,1016.87